createdAt,value
2023-05-17T00:01:45.389Z,100.00
2023-05-17T00:04:11.871Z,100.00
2023-05-17T00:06:38.411Z,100.00
2023-05-17T00:09:04.890Z,100.00
2023-05-17T00:11:31.684Z,100.00
2023-05-17T00:13:58.118Z,100.00
2023-05-17T00:16:24.574Z,100.00
2023-05-17T00:18:51.322Z,100.00
2023-05-17T00:21:17.936Z,100.00
2023-05-17T00:23:44.499Z,100.00
2023-05-17T00:26:11.001Z,100.00
2023-05-17T00:28:37.482Z,100.00
2023-05-17T00:31:03.926Z,100.00
2023-05-17T00:33:30.511Z,100.00
2023-05-17T00:35:57.114Z,100.00
2023-05-17T00:38:23.578Z,100.00
2023-05-17T00:40:50.701Z,100.00
2023-05-17T00:43:17.130Z,100.00
2023-05-17T00:45:43.601Z,100.00
2023-05-17T00:48:10.243Z,100.00
2023-05-17T00:50:36.781Z,100.00
2023-05-17T00:53:03.425Z,100.00
2023-05-17T00:55:30.695Z,100.00
2023-05-17T00:57:57.543Z,100.00
2023-05-17T01:00:24.339Z,100.00
2023-05-17T01:02:50.961Z,100.00
2023-05-17T01:05:17.766Z,100.00
2023-05-17T01:07:44.238Z,100.00
2023-05-17T01:10:11.306Z,100.00
2023-05-17T01:12:55.650Z,100.00
2023-05-17T01:15:32.927Z,100.00
2023-05-17T01:18:20.922Z,100.00
2023-05-17T01:20:49.004Z,100.00
2023-05-17T01:23:49.771Z,100.00
2023-05-17T01:26:19.480Z,100.00
2023-05-17T01:28:52.278Z,100.00
2023-05-17T01:31:18.723Z,100.00
2023-05-17T01:33:45.601Z,100.00
2023-05-17T01:36:12.139Z,100.00
2023-05-17T01:38:38.596Z,100.00
2023-05-17T01:41:16.550Z,100.00
2023-05-17T01:43:56.853Z,100.00
2023-05-17T01:46:33.871Z,100.00
2023-05-17T01:49:19.467Z,100.00
2023-05-17T01:51:50.801Z,100.00
2023-05-17T01:54:23.080Z,100.00
2023-05-17T01:57:01.516Z,100.00
2023-05-17T01:59:31.533Z,100.00
2023-05-17T02:02:07.258Z,100.00
2023-05-17T02:04:33.715Z,100.00
2023-05-17T02:07:00.200Z,100.00
2023-05-17T02:09:26.663Z,100.00
2023-05-17T02:11:53.179Z,100.00
2023-05-17T02:14:19.638Z,100.00
2023-05-17T02:16:46.116Z,100.00
2023-05-17T02:19:13.362Z,100.00
2023-05-17T02:21:39.979Z,100.00
2023-05-17T02:24:06.890Z,100.00
2023-05-17T02:26:33.377Z,100.00
2023-05-17T02:29:00.139Z,100.00
2023-05-17T02:31:26.762Z,100.00
2023-05-17T02:33:56.421Z,100.00
2023-05-17T02:36:22.992Z,100.00
2023-05-17T02:38:49.431Z,100.00
2023-05-17T02:41:15.952Z,100.00
2023-05-17T02:43:42.501Z,100.00
2023-05-17T02:46:08.976Z,100.00
2023-05-17T02:48:35.720Z,100.00
2023-05-17T02:51:02.166Z,100.00
2023-05-17T02:53:28.582Z,100.00
2023-05-17T02:55:58.013Z,100.00
2023-05-17T02:58:25.305Z,100.00
2023-05-17T03:00:52.088Z,100.00
2023-05-17T03:03:18.762Z,100.00
2023-05-17T03:05:45.385Z,100.00
2023-05-17T03:08:11.833Z,100.00
2023-05-17T03:10:38.356Z,100.00
2023-05-17T03:13:04.763Z,100.00
2023-05-17T03:15:31.673Z,100.00
2023-05-17T03:17:58.510Z,100.00
2023-05-17T03:20:25.090Z,100.00
2023-05-17T03:22:51.579Z,100.00
2023-05-17T03:25:18.130Z,100.00
2023-05-17T03:27:44.606Z,100.00
2023-05-17T03:30:11.391Z,100.00
2023-05-17T03:32:40.420Z,100.00
2023-05-17T03:35:08.274Z,100.00
2023-05-17T03:37:34.847Z,100.00
2023-05-17T03:40:01.306Z,100.00
2023-05-17T03:42:27.816Z,100.00
2023-05-17T03:44:54.337Z,100.00
2023-05-17T03:47:23.879Z,100.00
2023-05-17T03:49:50.585Z,100.00
2023-05-17T03:52:17.092Z,100.00
2023-05-17T03:54:43.525Z,100.00
2023-05-17T03:57:09.970Z,100.00
2023-05-17T03:59:36.395Z,100.00
2023-05-17T04:02:02.860Z,100.00
2023-05-17T04:04:29.417Z,100.00
2023-05-17T04:06:55.950Z,100.00
2023-05-17T04:09:22.375Z,100.00
2023-05-17T04:11:48.816Z,100.00
2023-05-17T04:14:15.316Z,100.00
2023-05-17T04:16:41.746Z,100.00
2023-05-17T04:19:08.447Z,100.00
2023-05-17T04:21:35.355Z,100.00
2023-05-17T04:24:02.221Z,100.00
2023-05-17T04:26:28.998Z,100.00
2023-05-17T04:28:55.532Z,100.00
2023-05-17T04:31:22.379Z,100.00
2023-05-17T04:33:48.826Z,100.00
2023-05-17T04:36:15.842Z,100.00
2023-05-17T04:38:42.557Z,100.00
2023-05-17T04:41:09.511Z,100.00
2023-05-17T04:43:36.377Z,100.00
2023-05-17T04:46:02.867Z,100.00
2023-05-17T04:48:32.066Z,100.00
2023-05-17T04:51:04.098Z,100.00
2023-05-17T04:53:31.303Z,100.00
2023-05-17T04:55:58.346Z,100.00
2023-05-17T04:58:24.888Z,100.00
2023-05-17T05:00:52.417Z,100.00
2023-05-17T05:03:19.011Z,100.00
2023-05-17T05:05:45.690Z,100.00
2023-05-17T05:08:12.247Z,100.00
2023-05-17T05:10:38.714Z,100.00
2023-05-17T05:13:05.193Z,100.00
2023-05-17T05:15:32.649Z,100.00
2023-05-17T05:17:59.213Z,100.00
2023-05-17T05:20:27.833Z,100.00
2023-05-17T05:22:54.734Z,100.00
2023-05-17T05:25:21.179Z,100.00
2023-05-17T05:27:47.709Z,100.00
2023-05-17T05:30:21.876Z,100.00
2023-05-17T05:32:50.058Z,100.00
2023-05-17T05:35:17.287Z,100.00
2023-05-17T05:37:44.364Z,100.00
2023-05-17T05:40:11.653Z,100.00
2023-05-17T05:42:38.092Z,100.00
2023-05-17T05:45:05.059Z,100.00
2023-05-17T05:47:31.599Z,100.00
2023-05-17T05:49:58.111Z,100.00
2023-05-17T05:52:24.598Z,100.00
2023-05-17T05:54:51.010Z,100.00
2023-05-17T05:57:17.451Z,100.00
2023-05-17T05:59:43.874Z,100.00
2023-05-17T06:02:10.402Z,100.00
2023-05-17T06:04:45.348Z,100.00
2023-05-17T06:07:13.293Z,100.00
2023-05-17T06:09:40.027Z,100.00
2023-05-17T06:12:06.650Z,100.00
2023-05-17T06:14:33.316Z,100.00
2023-05-17T06:16:59.808Z,100.00
2023-05-17T06:19:26.991Z,100.00
2023-05-17T06:21:53.596Z,100.00
2023-05-17T06:24:20.178Z,100.00
2023-05-17T06:26:47.263Z,100.00
2023-05-17T06:29:13.707Z,100.00
2023-05-17T06:31:41.330Z,100.00
2023-05-17T06:34:07.988Z,100.00
2023-05-17T06:36:35.935Z,100.00
2023-05-17T06:39:04.141Z,100.00
2023-05-17T06:41:30.762Z,100.00
2023-05-17T06:43:57.246Z,100.00
2023-05-17T06:46:23.858Z,100.00
2023-05-17T06:48:51.238Z,100.00
2023-05-17T06:51:18.114Z,100.00
2023-05-17T06:53:44.596Z,100.00
2023-05-17T06:56:11.192Z,100.00
2023-05-17T06:58:37.722Z,100.00
2023-05-17T07:01:04.374Z,100.00
2023-05-17T07:03:30.943Z,100.00
2023-05-17T07:05:57.460Z,100.00
2023-05-17T07:08:23.915Z,100.00
2023-05-17T07:10:53.792Z,100.00
2023-05-17T07:13:20.737Z,100.00
2023-05-17T07:15:47.275Z,100.00
2023-05-17T07:18:13.933Z,100.00
2023-05-17T07:20:40.505Z,100.00
2023-05-17T07:23:07.779Z,100.00
2023-05-17T07:25:34.401Z,100.00
2023-05-17T07:28:01.126Z,100.00
2023-05-17T07:30:27.581Z,100.00
2023-05-17T07:32:54.118Z,100.00
2023-05-17T07:35:21.861Z,100.00
2023-05-17T07:37:48.767Z,100.00
2023-05-17T07:40:15.513Z,100.00
2023-05-17T07:42:42.138Z,100.00
2023-05-17T07:45:09.337Z,100.00
2023-05-17T07:47:35.925Z,100.00
2023-05-17T07:50:04.114Z,100.00
2023-05-17T07:52:30.577Z,100.00
2023-05-17T07:54:57.086Z,100.00
2023-05-17T07:57:23.650Z,100.00
2023-05-17T07:59:50.093Z,100.00
2023-05-17T08:02:16.551Z,100.00
2023-05-17T08:04:43.076Z,100.00
2023-05-17T08:07:09.783Z,100.00
2023-05-17T08:09:36.237Z,100.00
2023-05-17T08:12:02.714Z,100.00
2023-05-17T08:14:29.284Z,100.00
2023-05-17T08:16:55.725Z,100.00
2023-05-17T08:19:22.469Z,100.00
2023-05-17T08:21:49.408Z,100.00
2023-05-17T08:24:16.147Z,100.00
2023-05-17T08:26:42.629Z,100.00
2023-05-17T08:29:11.458Z,100.00
2023-05-17T08:31:37.968Z,100.00
2023-05-17T08:34:04.782Z,100.00
2023-05-17T08:36:31.279Z,100.00
2023-05-17T08:38:58.029Z,100.00
2023-05-17T08:41:24.576Z,100.00
2023-05-17T08:43:51.799Z,100.00
2023-05-17T08:46:21.745Z,100.00
2023-05-17T08:48:51.849Z,100.00
2023-05-17T08:51:20.627Z,100.00
2023-05-17T08:53:48.109Z,100.00
2023-05-17T08:56:17.497Z,100.00
2023-05-17T08:58:56.197Z,100.00
2023-05-17T09:01:25.873Z,100.00
2023-05-17T09:03:52.811Z,100.00
2023-05-17T09:06:23.673Z,100.00
2023-05-17T09:08:54.965Z,100.00
2023-05-17T09:11:35.000Z,100.00
2023-05-17T09:14:06.081Z,100.00
2023-05-17T09:16:35.299Z,100.00
2023-05-17T09:19:04.288Z,100.00
2023-05-17T09:21:31.786Z,100.00
2023-05-17T09:24:06.964Z,100.00
2023-05-17T09:26:43.366Z,94.55
2023-05-17T09:29:11.490Z,97.10
2023-05-17T09:31:38.487Z,94.08
2023-05-17T09:34:07.118Z,90.34
2023-05-17T09:36:36.172Z,84.56
2023-05-17T09:39:10.707Z,80.80
2023-05-17T09:41:48.301Z,77.45
2023-05-17T09:44:15.762Z,82.38
2023-05-17T09:46:47.865Z,79.55
2023-05-17T09:49:15.415Z,80.53
2023-05-17T09:51:47.466Z,77.31
2023-05-17T09:54:13.990Z,82.99
2023-05-17T09:56:41.116Z,81.42
2023-05-17T09:59:15.576Z,74.91
2023-05-17T10:01:45.139Z,71.29
2023-05-17T10:04:13.236Z,71.22
2023-05-17T10:09:14.234Z,71.71
2023-05-17T10:11:45.849Z,71.07
2023-05-17T10:14:31.926Z,55.28
2023-05-17T10:16:59.015Z,61.33
2023-05-17T10:19:26.525Z,59.98
2023-05-17T10:21:53.946Z,62.39
2023-05-17T10:24:24.032Z,58.66
2023-05-17T10:26:51.302Z,57.92
2023-05-17T10:29:20.870Z,57.05
2023-05-17T10:31:48.788Z,57.82
2023-05-17T10:34:16.815Z,56.03
2023-05-17T10:36:49.530Z,51.99
2023-05-17T10:39:16.750Z,53.96
2023-05-17T10:41:46.480Z,53.94
2023-05-17T10:44:16.072Z,54.73
2023-05-17T10:46:52.711Z,49.52
2023-05-17T10:49:24.148Z,51.49
2023-05-17T10:51:51.655Z,51.79
2023-05-17T10:54:18.796Z,50.80
2023-05-17T10:56:49.150Z,49.02
2023-05-17T10:59:24.368Z,47.79
2023-05-17T11:01:57.863Z,44.67
2023-05-17T11:04:38.926Z,46.88
2023-05-17T11:07:17.942Z,43.61
2023-05-17T11:09:46.238Z,46.70
2023-05-17T11:12:14.390Z,45.94
2023-05-17T11:14:54.389Z,43.65
2023-05-17T11:17:23.912Z,45.89
2023-05-17T11:20:25.842Z,43.08
2023-05-17T11:22:56.421Z,42.09
2023-05-17T11:25:23.066Z,44.39
2023-05-17T11:27:51.846Z,44.63
2023-05-17T11:30:23.221Z,44.45
2023-05-17T11:32:52.237Z,43.57
2023-05-17T11:35:19.875Z,43.82
2023-05-17T11:37:46.497Z,42.69
2023-05-17T11:40:14.823Z,43.18
2023-05-17T11:42:41.894Z,43.15
2023-05-17T11:45:08.845Z,43.38
2023-05-17T11:47:39.519Z,42.75
2023-05-17T11:50:07.353Z,43.58
2023-05-17T11:52:34.430Z,41.87
2023-05-17T11:55:01.492Z,41.26
2023-05-17T11:57:32.283Z,40.08
2023-05-17T12:00:00.420Z,40.69
2023-05-17T12:02:31.556Z,40.91
2023-05-17T12:04:58.396Z,41.21
2023-05-17T12:07:25.968Z,41.38
2023-05-17T12:09:53.023Z,41.09
2023-05-17T12:12:22.486Z,40.95
2023-05-17T12:14:50.502Z,41.43
2023-05-17T12:17:27.435Z,40.14
2023-05-17T12:19:54.569Z,40.98
2023-05-17T12:22:21.397Z,40.83
2023-05-17T12:24:47.897Z,40.31
2023-05-17T12:27:14.418Z,40.90
2023-05-17T12:29:41.092Z,42.06
2023-05-17T12:32:10.217Z,40.92
2023-05-17T12:34:36.982Z,40.66
2023-05-17T12:37:05.056Z,40.71
2023-05-17T12:39:31.757Z,39.60
2023-05-17T12:41:58.915Z,39.35
2023-05-17T12:44:25.489Z,38.50
2023-05-17T12:46:56.132Z,38.03
2023-05-17T12:49:23.064Z,38.46
2023-05-17T12:51:52.448Z,38.70
2023-05-17T12:54:29.475Z,38.14
2023-05-17T12:56:56.487Z,38.65
2023-05-17T12:59:25.647Z,38.41
2023-05-17T13:01:55.806Z,37.73
2023-05-17T13:04:33.796Z,36.60
2023-05-17T13:07:02.621Z,36.95
2023-05-17T13:09:33.218Z,37.42
2023-05-17T13:12:07.577Z,37.90
2023-05-17T13:17:25.244Z,35.37
2023-05-17T13:19:52.552Z,36.69
2023-05-17T13:22:19.491Z,37.26
2023-05-17T13:24:46.062Z,37.57
2023-05-17T13:27:13.054Z,37.30
2023-05-17T13:29:42.121Z,36.46
2023-05-17T13:32:13.666Z,35.92
2023-05-17T13:34:41.372Z,36.43
2023-05-17T13:37:11.588Z,36.66
2023-05-17T13:39:39.121Z,36.75
2023-05-17T13:42:05.942Z,37.38
2023-05-17T13:44:32.582Z,37.62
2023-05-17T13:46:59.086Z,37.21
2023-05-17T13:49:26.086Z,37.27
2023-05-17T13:51:52.513Z,36.00
2023-05-17T13:54:20.735Z,36.11
2023-05-17T13:56:48.529Z,35.82
2023-05-17T13:59:14.984Z,35.06
2023-05-17T14:01:41.918Z,35.43
2023-05-17T14:04:08.591Z,35.93
2023-05-17T14:06:35.148Z,36.67
2023-05-17T14:09:01.663Z,35.72
2023-05-17T14:11:28.216Z,35.29
2023-05-17T14:13:54.789Z,35.59
2023-05-17T14:16:22.874Z,36.40
2023-05-17T14:18:49.829Z,35.66
2023-05-17T14:21:16.571Z,35.27
2023-05-17T14:23:43.027Z,35.02
2023-05-17T14:26:09.663Z,34.91
2023-05-17T14:28:38.268Z,35.69
2023-05-17T14:31:09.372Z,35.40
2023-05-17T14:33:36.154Z,35.58
2023-05-17T14:36:04.020Z,35.17
2023-05-17T14:38:31.056Z,35.10
2023-05-17T14:40:58.980Z,34.45
2023-05-17T14:43:25.626Z,34.56
2023-05-17T14:45:52.075Z,34.11
2023-05-17T14:48:18.665Z,33.91
2023-05-17T14:50:45.240Z,34.29
2023-05-17T14:53:11.914Z,34.80
2023-05-17T14:55:38.447Z,34.85
2023-05-17T14:58:04.974Z,35.12
2023-05-17T15:00:31.483Z,35.36
2023-05-17T15:02:58.181Z,34.94
2023-05-17T15:05:25.057Z,34.90
2023-05-17T15:07:52.791Z,35.29
2023-05-17T15:10:19.548Z,33.95
2023-05-17T15:12:46.029Z,33.39
2023-05-17T15:15:12.955Z,33.71
2023-05-17T15:17:39.462Z,33.34
2023-05-17T15:20:07.472Z,33.78
2023-05-17T15:22:34.109Z,33.55
2023-05-17T15:25:00.571Z,33.47
2023-05-17T15:27:27.076Z,33.97
2023-05-17T15:29:53.533Z,33.63
2023-05-17T15:32:20.029Z,33.20
2023-05-17T15:34:46.740Z,32.86
2023-05-17T15:37:13.272Z,33.07
2023-05-17T15:39:39.694Z,32.97
2023-05-17T15:42:06.182Z,32.95
2023-05-17T15:44:32.658Z,32.22
2023-05-17T15:47:01.462Z,32.51
2023-05-17T15:49:29.628Z,32.32
2023-05-17T15:51:56.355Z,32.69
2023-05-17T15:54:22.831Z,32.55
2023-05-17T15:56:49.324Z,32.76
2023-05-17T15:59:16.107Z,32.83
2023-05-17T16:01:45.986Z,32.64
2023-05-17T16:04:13.509Z,32.98
2023-05-17T16:06:40.205Z,32.97
2023-05-17T16:09:06.845Z,31.92
2023-05-17T16:11:33.365Z,31.19
2023-05-17T16:13:59.907Z,32.24
2023-05-17T16:16:26.414Z,31.98
2023-05-17T16:18:53.314Z,31.18
2023-05-17T16:21:20.020Z,31.48
2023-05-17T16:23:46.584Z,31.90
2023-05-17T16:26:13.249Z,32.04
2023-05-17T16:28:40.120Z,32.25
2023-05-17T16:31:06.704Z,32.40
2023-05-17T16:33:34.736Z,32.53
2023-05-17T16:36:02.194Z,32.43
2023-05-17T16:38:28.661Z,32.96
2023-05-17T16:40:55.286Z,32.93
2023-05-17T16:43:22.050Z,32.81
2023-05-17T16:45:49.926Z,33.03
2023-05-17T16:48:17.526Z,33.21
2023-05-17T16:50:44.217Z,33.85
2023-05-17T16:53:10.844Z,34.54
2023-05-17T16:55:38.117Z,34.74
2023-05-17T16:58:05.039Z,34.57
2023-05-17T17:00:32.094Z,35.04
2023-05-17T17:02:59.442Z,35.59
2023-05-17T17:05:29.172Z,35.67
2023-05-17T17:07:55.775Z,35.72
2023-05-17T17:10:22.318Z,35.79
2023-05-17T17:12:49.358Z,35.83
2023-05-17T17:15:16.000Z,36.02
2023-05-17T17:17:42.726Z,36.68
2023-05-17T17:20:09.910Z,36.79
2023-05-17T17:22:36.384Z,36.89
2023-05-17T17:25:03.301Z,36.75
2023-05-17T17:27:29.745Z,37.27
2023-05-17T17:29:56.236Z,37.19
2023-05-17T17:32:22.720Z,37.42
2023-05-17T17:34:49.246Z,37.15
2023-05-17T17:37:15.963Z,37.13
2023-05-17T17:39:42.528Z,37.03
2023-05-17T17:42:10.089Z,37.51
2023-05-17T17:44:36.780Z,37.68
2023-05-17T17:47:03.479Z,37.87
2023-05-17T17:49:30.193Z,37.80
2023-05-17T17:51:58.085Z,38.03
2023-05-17T17:54:24.707Z,38.62
2023-05-17T17:56:51.143Z,38.44
2023-05-17T17:59:17.630Z,38.30
2023-05-17T18:01:44.292Z,38.99
2023-05-17T18:04:13.379Z,39.07
2023-05-17T18:06:41.790Z,39.24
2023-05-17T18:09:08.308Z,39.19
2023-05-17T18:11:34.881Z,39.68
2023-05-17T18:14:02.499Z,39.63
2023-05-17T18:16:29.153Z,39.91
2023-05-17T18:18:55.993Z,40.33
2023-05-17T18:21:22.565Z,40.09
2023-05-17T18:23:49.001Z,40.30
2023-05-17T18:26:15.500Z,40.53
2023-05-17T18:28:43.082Z,40.65
2023-05-17T18:31:10.118Z,40.95
2023-05-17T18:33:36.609Z,41.30
2023-05-17T18:36:03.359Z,41.23
2023-05-17T18:38:29.903Z,41.46
2023-05-17T18:40:56.496Z,41.74
2023-05-17T18:43:23.102Z,42.59
2023-05-17T18:45:51.349Z,43.33
2023-05-17T18:48:18.074Z,43.67
2023-05-17T18:50:44.559Z,44.37
2023-05-17T18:53:12.827Z,45.19
2023-05-17T18:55:39.412Z,45.72
2023-05-17T18:58:05.924Z,46.57
2023-05-17T19:00:32.971Z,47.38
2023-05-17T19:02:59.584Z,48.31
2023-05-17T19:05:26.043Z,48.88
2023-05-17T19:07:52.532Z,50.13
2023-05-17T19:10:20.609Z,50.94
2023-05-17T19:12:47.313Z,52.07
2023-05-17T19:15:13.846Z,53.21
2023-05-17T19:17:40.603Z,53.78
2023-05-17T19:20:07.913Z,54.41
2023-05-17T19:22:35.790Z,55.21
2023-05-17T19:25:02.527Z,56.07
2023-05-17T19:27:29.378Z,57.42
2023-05-17T19:29:56.044Z,57.75
2023-05-17T19:32:22.890Z,59.50
2023-05-17T19:34:49.944Z,60.79
2023-05-17T19:37:16.659Z,61.31
2023-05-17T19:39:43.133Z,61.75
2023-05-17T19:42:09.567Z,62.63
2023-05-17T19:44:36.273Z,64.11
2023-05-17T19:47:02.718Z,63.96
2023-05-17T19:49:29.158Z,65.01
2023-05-17T19:52:00.523Z,67.15
2023-05-17T19:54:30.202Z,69.18
2023-05-17T19:56:57.203Z,68.53
2023-05-17T19:59:23.778Z,69.53
2023-05-17T20:01:51.221Z,70.43
2023-05-17T20:04:17.856Z,71.14
2023-05-17T20:06:44.746Z,72.35
2023-05-17T20:09:11.469Z,72.70
2023-05-17T20:11:38.080Z,74.64
2023-05-17T20:14:04.632Z,75.82
2023-05-17T20:16:31.238Z,76.04
2023-05-17T20:18:58.536Z,75.71
2023-05-17T20:21:26.355Z,76.65
2023-05-17T20:23:56.850Z,77.60
2023-05-17T20:26:26.975Z,78.12
2023-05-17T20:28:53.690Z,78.18
2023-05-17T20:31:20.516Z,78.72
2023-05-17T20:33:47.045Z,79.74
2023-05-17T20:36:14.586Z,80.41
2023-05-17T20:38:42.651Z,80.37
2023-05-17T20:41:11.115Z,80.11
2023-05-17T20:43:37.727Z,80.24
2023-05-17T20:46:07.601Z,80.56
2023-05-17T20:48:34.395Z,80.16
2023-05-17T20:51:01.198Z,79.87
2023-05-17T20:53:30.922Z,79.55
2023-05-17T20:55:58.389Z,78.52
2023-05-17T20:58:24.924Z,77.70
2023-05-17T21:00:52.875Z,76.11
2023-05-17T21:03:19.562Z,73.75
2023-05-17T21:05:46.524Z,72.05
2023-05-17T21:08:14.000Z,71.35
2023-05-17T21:10:42.760Z,71.17
2023-05-17T21:13:09.635Z,70.57
2023-05-17T21:15:36.638Z,70.33
2023-05-17T21:18:03.727Z,70.63
2023-05-17T21:20:30.822Z,71.39
2023-05-17T21:22:57.325Z,71.00
2023-05-17T21:25:23.942Z,71.61
2023-05-17T21:27:51.173Z,71.92
2023-05-17T21:30:17.687Z,72.88
2023-05-17T21:32:44.278Z,73.10
2023-05-17T21:35:10.865Z,73.54
2023-05-17T21:37:39.937Z,72.99
2023-05-17T21:40:08.024Z,73.54
2023-05-17T21:42:34.665Z,73.64
2023-05-17T21:45:01.263Z,74.79
2023-05-17T21:47:27.877Z,75.32
2023-05-17T21:49:54.807Z,75.85
2023-05-17T21:52:21.286Z,76.26
2023-05-17T21:54:47.896Z,76.47
2023-05-17T21:57:14.357Z,77.21
2023-05-17T21:59:40.909Z,77.57
2023-05-17T22:02:08.641Z,78.62
2023-05-17T22:04:35.327Z,79.00
2023-05-17T22:07:01.996Z,80.22
2023-05-17T22:09:28.442Z,80.38
2023-05-17T22:11:58.680Z,81.24
2023-05-17T22:14:25.896Z,82.34
2023-05-17T22:16:56.023Z,84.12
2023-05-17T22:19:23.477Z,85.12
2023-05-17T22:21:50.363Z,85.41
2023-05-17T22:24:16.901Z,86.21
2023-05-17T22:26:43.498Z,87.43
2023-05-17T22:29:10.070Z,88.31
2023-05-17T22:31:37.815Z,90.55
2023-05-17T22:34:04.879Z,91.26
2023-05-17T22:36:32.224Z,91.94
2023-05-17T22:38:59.119Z,93.31
2023-05-17T22:41:26.500Z,94.11
2023-05-17T22:43:53.413Z,94.93
2023-05-17T22:46:20.159Z,96.29
2023-05-17T22:48:46.632Z,97.51
2023-05-17T22:51:13.088Z,97.19
2023-05-17T22:53:39.569Z,98.05
2023-05-17T22:56:06.546Z,98.73
2023-05-17T22:58:33.000Z,99.49
2023-05-17T23:00:59.567Z,100.00
2023-05-17T23:03:26.370Z,100.00
2023-05-17T23:06:02.099Z,100.00
2023-05-17T23:08:30.067Z,100.00
2023-05-17T23:10:58.233Z,100.00
2023-05-17T23:13:25.935Z,100.00
2023-05-17T23:15:52.507Z,100.00
2023-05-17T23:18:19.185Z,100.00
2023-05-17T23:20:46.342Z,100.00
2023-05-17T23:23:16.127Z,100.00
2023-05-17T23:25:44.741Z,100.00
2023-05-17T23:28:11.531Z,100.00
2023-05-17T23:30:39.834Z,100.00
2023-05-17T23:33:06.499Z,100.00
2023-05-17T23:35:33.016Z,100.00
2023-05-17T23:37:59.824Z,100.00
2023-05-17T23:40:26.443Z,100.00
2023-05-17T23:42:52.947Z,100.00
2023-05-17T23:45:19.493Z,100.00
2023-05-17T23:47:47.614Z,100.00
2023-05-17T23:50:14.546Z,100.00
2023-05-17T23:52:41.008Z,100.00
2023-05-17T23:55:07.931Z,100.00
2023-05-17T23:57:35.333Z,100.00
